sensor_id;sensor_type;location;lat;lon;timestamp;P1;durP1;ratioP1;P2;durP2;ratioP2
66179;SDS011;52986;44.028;20.466;2022-10-31T00:00:47;50.17;;;23.80;;
66179;SDS011;52986;44.028;20.466;2022-10-31T00:03:13;43.90;;;22.73;;
66179;SDS011;52986;44.028;20.466;2022-10-31T00:05:42;41.85;;;22.35;;
66179;SDS011;52986;44.028;20.466;2022-10-31T00:08:08;39.75;;;21.63;;
66179;SDS011;52986;44.028;20.466;2022-10-31T00:10:36;40.28;;;21.15;;
66179;SDS011;52986;44.028;20.466;2022-10-31T00:13:03;41.00;;;21.52;;
66179;SDS011;52986;44.028;20.466;2022-10-31T00:15:28;45.67;;;23.92;;
66179;SDS011;52986;44.028;20.466;2022-10-31T00:17:53;49.83;;;25.42;;
66179;SDS011;52986;44.028;20.466;2022-10-31T00:20:19;46.33;;;24.63;;
66179;SDS011;52986;44.028;20.466;2022-10-31T00:22:44;47.75;;;23.58;;
66179;SDS011;52986;44.028;20.466;2022-10-31T00:25:09;42.85;;;22.92;;
66179;SDS011;52986;44.028;20.466;2022-10-31T00:27:35;40.80;;;21.77;;
66179;SDS011;52986;44.028;20.466;2022-10-31T00:30:00;43.00;;;22.23;;
66179;SDS011;52986;44.028;20.466;2022-10-31T00:32:28;41.92;;;22.00;;
66179;SDS011;52986;44.028;20.466;2022-10-31T00:34:55;43.03;;;21.95;;
66179;SDS011;52986;44.028;20.466;2022-10-31T00:37:20;39.88;;;22.65;;
66179;SDS011;52986;44.028;20.466;2022-10-31T00:39:45;41.33;;;21.52;;
66179;SDS011;52986;44.028;20.466;2022-10-31T00:42:14;41.42;;;21.60;;
66179;SDS011;52986;44.028;20.466;2022-10-31T00:44:39;38.95;;;20.40;;
66179;SDS011;52986;44.028;20.466;2022-10-31T00:47:04;40.33;;;20.90;;
66179;SDS011;52986;44.028;20.466;2022-10-31T00:49:30;38.85;;;19.95;;
66179;SDS011;52986;44.028;20.466;2022-10-31T00:51:55;37.20;;;20.17;;
66179;SDS011;52986;44.028;20.466;2022-10-31T00:54:20;39.77;;;19.93;;
66179;SDS011;52986;44.028;20.466;2022-10-31T00:56:46;38.33;;;20.50;;
66179;SDS011;52986;44.028;20.466;2022-10-31T00:59:11;40.72;;;21.17;;
66179;SDS011;52986;44.028;20.466;2022-10-31T01:01:36;38.40;;;19.60;;
66179;SDS011;52986;44.028;20.466;2022-10-31T01:04:02;37.95;;;19.65;;
66179;SDS011;52986;44.028;20.466;2022-10-31T01:06:27;39.70;;;20.23;;
66179;SDS011;52986;44.028;20.466;2022-10-31T01:08:52;35.03;;;18.55;;
66179;SDS011;52986;44.028;20.466;2022-10-31T01:11:22;37.78;;;19.02;;
66179;SDS011;52986;44.028;20.466;2022-10-31T01:13:51;35.50;;;18.95;;
66179;SDS011;52986;44.028;20.466;2022-10-31T01:16:19;34.75;;;18.63;;
66179;SDS011;52986;44.028;20.466;2022-10-31T01:18:45;37.25;;;19.88;;
66179;SDS011;52986;44.028;20.466;2022-10-31T01:21:12;34.10;;;18.95;;
66179;SDS011;52986;44.028;20.466;2022-10-31T01:23:42;36.60;;;18.83;;
66179;SDS011;52986;44.028;20.466;2022-10-31T01:28:38;38.47;;;20.20;;
66179;SDS011;52986;44.028;20.466;2022-10-31T01:31:08;37.35;;;19.67;;
66179;SDS011;52986;44.028;20.466;2022-10-31T01:33:34;39.45;;;19.15;;
66179;SDS011;52986;44.028;20.466;2022-10-31T01:36:00;36.03;;;18.80;;
66179;SDS011;52986;44.028;20.466;2022-10-31T01:38:26;39.83;;;20.67;;
66179;SDS011;52986;44.028;20.466;2022-10-31T01:40:52;37.78;;;20.27;;
66179;SDS011;52986;44.028;20.466;2022-10-31T01:43:18;35.88;;;19.08;;
66179;SDS011;52986;44.028;20.466;2022-10-31T01:45:44;34.03;;;18.92;;
66179;SDS011;52986;44.028;20.466;2022-10-31T01:48:16;36.95;;;19.40;;
66179;SDS011;52986;44.028;20.466;2022-10-31T01:50:44;33.42;;;18.30;;
66179;SDS011;52986;44.028;20.466;2022-10-31T01:53:13;34.72;;;18.65;;
66179;SDS011;52986;44.028;20.466;2022-10-31T01:55:41;33.30;;;18.73;;
66179;SDS011;52986;44.028;20.466;2022-10-31T01:58:19;32.95;;;17.60;;
66179;SDS011;52986;44.028;20.466;2022-10-31T02:00:51;34.92;;;18.08;;
66179;SDS011;52986;44.028;20.466;2022-10-31T02:03:19;32.85;;;16.63;;
66179;SDS011;52986;44.028;20.466;2022-10-31T02:05:47;32.42;;;17.10;;
66179;SDS011;52986;44.028;20.466;2022-10-31T02:08:16;33.00;;;17.92;;
66179;SDS011;52986;44.028;20.466;2022-10-31T02:10:46;34.42;;;16.95;;
66179;SDS011;52986;44.028;20.466;2022-10-31T02:13:12;35.63;;;17.45;;
66179;SDS011;52986;44.028;20.466;2022-10-31T02:15:38;32.30;;;17.42;;
66179;SDS011;52986;44.028;20.466;2022-10-31T02:18:05;33.15;;;16.98;;
66179;SDS011;52986;44.028;20.466;2022-10-31T02:20:33;36.67;;;18.80;;
66179;SDS011;52986;44.028;20.466;2022-10-31T02:34:12;35.85;;;18.50;;
66179;SDS011;52986;44.028;20.466;2022-10-31T02:37:28;36.67;;;17.42;;
66179;SDS011;52986;44.028;20.466;2022-10-31T02:43:00;30.85;;;16.50;;
66179;SDS011;52986;44.028;20.466;2022-10-31T02:45:47;36.65;;;18.65;;
66179;SDS011;52986;44.028;20.466;2022-10-31T02:48:29;33.53;;;16.98;;
66179;SDS011;52986;44.028;20.466;2022-10-31T02:51:01;35.72;;;16.70;;
66179;SDS011;52986;44.028;20.466;2022-10-31T02:53:35;34.25;;;17.13;;
66179;SDS011;52986;44.028;20.466;2022-10-31T02:56:04;31.55;;;16.17;;
66179;SDS011;52986;44.028;20.466;2022-10-31T02:58:36;32.45;;;16.60;;
66179;SDS011;52986;44.028;20.466;2022-10-31T03:06:15;29.85;;;16.52;;
66179;SDS011;52986;44.028;20.466;2022-10-31T03:11:32;31.35;;;16.42;;
66179;SDS011;52986;44.028;20.466;2022-10-31T03:14:11;31.40;;;16.08;;
66179;SDS011;52986;44.028;20.466;2022-10-31T03:16:49;32.88;;;16.25;;
66179;SDS011;52986;44.028;20.466;2022-10-31T03:19:23;31.58;;;16.40;;
66179;SDS011;52986;44.028;20.466;2022-10-31T03:22:04;30.73;;;15.82;;
66179;SDS011;52986;44.028;20.466;2022-10-31T03:24:47;31.27;;;15.30;;
66179;SDS011;52986;44.028;20.466;2022-10-31T03:27:18;29.92;;;15.82;;
66179;SDS011;52986;44.028;20.466;2022-10-31T03:29:47;30.38;;;16.20;;
66179;SDS011;52986;44.028;20.466;2022-10-31T03:32:17;28.85;;;15.10;;
66179;SDS011;52986;44.028;20.466;2022-10-31T03:35:03;28.95;;;14.90;;
66179;SDS011;52986;44.028;20.466;2022-10-31T03:37:32;31.42;;;15.30;;
66179;SDS011;52986;44.028;20.466;2022-10-31T03:40:00;29.98;;;15.10;;
66179;SDS011;52986;44.028;20.466;2022-10-31T03:42:29;33.60;;;16.40;;
66179;SDS011;52986;44.028;20.466;2022-10-31T03:47:25;30.83;;;16.20;;
66179;SDS011;52986;44.028;20.466;2022-10-31T03:49:51;32.53;;;16.48;;
66179;SDS011;52986;44.028;20.466;2022-10-31T03:52:19;29.75;;;16.42;;
66179;SDS011;52986;44.028;20.466;2022-10-31T03:54:51;30.40;;;16.55;;
66179;SDS011;52986;44.028;20.466;2022-10-31T03:57:29;31.80;;;16.42;;
66179;SDS011;52986;44.028;20.466;2022-10-31T04:00:06;30.70;;;15.40;;
66179;SDS011;52986;44.028;20.466;2022-10-31T04:02:34;32.38;;;16.75;;
66179;SDS011;52986;44.028;20.466;2022-10-31T04:05:05;31.80;;;15.50;;
66179;SDS011;52986;44.028;20.466;2022-10-31T04:07:33;29.85;;;14.77;;
66179;SDS011;52986;44.028;20.466;2022-10-31T04:10:04;28.20;;;14.88;;
66179;SDS011;52986;44.028;20.466;2022-10-31T04:12:32;30.25;;;15.55;;
66179;SDS011;52986;44.028;20.466;2022-10-31T04:14:59;30.23;;;15.13;;
66179;SDS011;52986;44.028;20.466;2022-10-31T04:17:29;78.50;;;28.42;;
66179;SDS011;52986;44.028;20.466;2022-10-31T04:19:58;52.28;;;21.40;;
66179;SDS011;52986;44.028;20.466;2022-10-31T04:22:25;34.85;;;16.98;;
66179;SDS011;52986;44.028;20.466;2022-10-31T04:24:50;31.55;;;15.60;;
66179;SDS011;52986;44.028;20.466;2022-10-31T04:27:15;31.95;;;16.92;;
66179;SDS011;52986;44.028;20.466;2022-10-31T04:29:41;31.98;;;16.58;;
66179;SDS011;52986;44.028;20.466;2022-10-31T04:32:06;34.22;;;17.23;;
66179;SDS011;52986;44.028;20.466;2022-10-31T04:34:31;34.80;;;17.20;;
66179;SDS011;52986;44.028;20.466;2022-10-31T04:36:57;32.88;;;17.08;;
66179;SDS011;52986;44.028;20.466;2022-10-31T04:39:22;33.95;;;16.70;;
66179;SDS011;52986;44.028;20.466;2022-10-31T04:41:47;32.20;;;16.80;;
66179;SDS011;52986;44.028;20.466;2022-10-31T04:44:13;30.80;;;16.05;;
66179;SDS011;52986;44.028;20.466;2022-10-31T04:46:38;31.95;;;16.63;;
66179;SDS011;52986;44.028;20.466;2022-10-31T04:49:04;34.97;;;17.70;;
66179;SDS011;52986;44.028;20.466;2022-10-31T04:51:29;35.85;;;17.67;;
66179;SDS011;52986;44.028;20.466;2022-10-31T04:53:54;35.38;;;18.45;;
66179;SDS011;52986;44.028;20.466;2022-10-31T04:56:19;32.57;;;17.37;;
66179;SDS011;52986;44.028;20.466;2022-10-31T04:58:45;32.00;;;16.67;;
66179;SDS011;52986;44.028;20.466;2022-10-31T05:01:10;32.75;;;17.00;;
66179;SDS011;52986;44.028;20.466;2022-10-31T05:03:36;37.47;;;17.58;;
66179;SDS011;52986;44.028;20.466;2022-10-31T05:06:01;33.42;;;17.33;;
66179;SDS011;52986;44.028;20.466;2022-10-31T05:08:26;39.08;;;18.00;;
66179;SDS011;52986;44.028;20.466;2022-10-31T05:10:52;35.50;;;16.60;;
66179;SDS011;52986;44.028;20.466;2022-10-31T05:13:17;33.30;;;17.23;;
66179;SDS011;52986;44.028;20.466;2022-10-31T05:15:43;32.83;;;16.98;;
66179;SDS011;52986;44.028;20.466;2022-10-31T05:18:08;35.95;;;18.05;;
66179;SDS011;52986;44.028;20.466;2022-10-31T05:20:33;32.30;;;17.30;;
66179;SDS011;52986;44.028;20.466;2022-10-31T05:22:59;36.25;;;18.15;;
66179;SDS011;52986;44.028;20.466;2022-10-31T05:25:25;42.83;;;19.25;;
66179;SDS011;52986;44.028;20.466;2022-10-31T05:27:52;43.45;;;23.02;;
66179;SDS011;52986;44.028;20.466;2022-10-31T05:30:20;44.58;;;20.45;;
66179;SDS011;52986;44.028;20.466;2022-10-31T05:32:48;42.25;;;21.20;;
66179;SDS011;52986;44.028;20.466;2022-10-31T05:35:19;46.22;;;22.80;;
66179;SDS011;52986;44.028;20.466;2022-10-31T05:37:46;44.85;;;20.55;;
66179;SDS011;52986;44.028;20.466;2022-10-31T05:40:12;42.17;;;18.50;;
66179;SDS011;52986;44.028;20.466;2022-10-31T05:42:39;37.00;;;17.95;;
66179;SDS011;52986;44.028;20.466;2022-10-31T05:45:09;34.28;;;17.02;;
66179;SDS011;52986;44.028;20.466;2022-10-31T05:47:37;33.22;;;17.35;;
66179;SDS011;52986;44.028;20.466;2022-10-31T05:50:03;35.10;;;19.60;;
66179;SDS011;52986;44.028;20.466;2022-10-31T05:52:29;41.05;;;19.30;;
66179;SDS011;52986;44.028;20.466;2022-10-31T05:54:55;49.35;;;23.05;;
66179;SDS011;52986;44.028;20.466;2022-10-31T05:57:20;53.58;;;25.52;;
66179;SDS011;52986;44.028;20.466;2022-10-31T05:59:46;62.53;;;29.23;;
66179;SDS011;52986;44.028;20.466;2022-10-31T06:02:11;61.42;;;30.67;;
66179;SDS011;52986;44.028;20.466;2022-10-31T06:04:36;74.03;;;36.30;;
66179;SDS011;52986;44.028;20.466;2022-10-31T06:07:02;65.72;;;33.47;;
66179;SDS011;52986;44.028;20.466;2022-10-31T06:09:27;71.50;;;32.50;;
66179;SDS011;52986;44.028;20.466;2022-10-31T06:11:52;58.77;;;29.40;;
66179;SDS011;52986;44.028;20.466;2022-10-31T06:14:18;58.75;;;29.95;;
66179;SDS011;52986;44.028;20.466;2022-10-31T06:16:43;57.85;;;30.27;;
66179;SDS011;52986;44.028;20.466;2022-10-31T06:19:08;53.33;;;27.67;;
66179;SDS011;52986;44.028;20.466;2022-10-31T06:21:34;48.42;;;26.25;;
66179;SDS011;52986;44.028;20.466;2022-10-31T06:23:59;44.13;;;23.90;;
66179;SDS011;52986;44.028;20.466;2022-10-31T06:26:25;42.15;;;21.77;;
66179;SDS011;52986;44.028;20.466;2022-10-31T06:28:50;44.20;;;23.95;;
66179;SDS011;52986;44.028;20.466;2022-10-31T06:31:15;45.07;;;22.33;;
66179;SDS011;52986;44.028;20.466;2022-10-31T06:33:44;40.45;;;22.08;;
66179;SDS011;52986;44.028;20.466;2022-10-31T06:36:09;42.88;;;21.98;;
66179;SDS011;52986;44.028;20.466;2022-10-31T06:38:35;37.25;;;20.52;;
66179;SDS011;52986;44.028;20.466;2022-10-31T06:41:04;38.38;;;20.55;;
66179;SDS011;52986;44.028;20.466;2022-10-31T06:43:30;37.28;;;20.98;;
66179;SDS011;52986;44.028;20.466;2022-10-31T06:45:56;44.75;;;20.80;;
66179;SDS011;52986;44.028;20.466;2022-10-31T06:48:21;37.97;;;21.15;;
66179;SDS011;52986;44.028;20.466;2022-10-31T06:50:46;34.22;;;18.33;;
66179;SDS011;52986;44.028;20.466;2022-10-31T06:53:12;37.45;;;20.85;;
66179;SDS011;52986;44.028;20.466;2022-10-31T06:55:39;34.95;;;20.20;;
66179;SDS011;52986;44.028;20.466;2022-10-31T06:58:05;32.03;;;19.23;;
66179;SDS011;52986;44.028;20.466;2022-10-31T07:00:31;34.90;;;20.48;;
66179;SDS011;52986;44.028;20.466;2022-10-31T07:02:58;36.60;;;20.52;;
66179;SDS011;52986;44.028;20.466;2022-10-31T07:05:25;36.83;;;21.38;;
66179;SDS011;52986;44.028;20.466;2022-10-31T07:07:56;40.00;;;22.98;;
66179;SDS011;52986;44.028;20.466;2022-10-31T07:10:26;35.75;;;20.80;;
66179;SDS011;52986;44.028;20.466;2022-10-31T07:12:56;37.03;;;22.60;;
66179;SDS011;52986;44.028;20.466;2022-10-31T07:15:22;35.65;;;21.10;;
66179;SDS011;52986;44.028;20.466;2022-10-31T07:17:48;33.75;;;21.33;;
66179;SDS011;52986;44.028;20.466;2022-10-31T07:20:14;33.67;;;21.02;;
66179;SDS011;52986;44.028;20.466;2022-10-31T07:22:40;33.08;;;20.77;;
66179;SDS011;52986;44.028;20.466;2022-10-31T07:25:05;33.90;;;21.37;;
66179;SDS011;52986;44.028;20.466;2022-10-31T07:27:37;29.73;;;19.70;;
66179;SDS011;52986;44.028;20.466;2022-10-31T07:30:04;30.00;;;18.27;;
66179;SDS011;52986;44.028;20.466;2022-10-31T07:32:39;28.70;;;17.73;;
66179;SDS011;52986;44.028;20.466;2022-10-31T07:35:09;27.25;;;16.10;;
66179;SDS011;52986;44.028;20.466;2022-10-31T07:37:37;24.10;;;15.45;;
66179;SDS011;52986;44.028;20.466;2022-10-31T07:40:03;24.63;;;16.50;;
66179;SDS011;52986;44.028;20.466;2022-10-31T07:42:34;25.20;;;15.63;;
66179;SDS011;52986;44.028;20.466;2022-10-31T07:45:07;25.17;;;15.73;;
66179;SDS011;52986;44.028;20.466;2022-10-31T07:50:14;28.30;;;17.55;;
66179;SDS011;52986;44.028;20.466;2022-10-31T07:52:41;29.50;;;19.35;;
66179;SDS011;52986;44.028;20.466;2022-10-31T07:55:07;33.08;;;19.60;;
66179;SDS011;52986;44.028;20.466;2022-10-31T07:57:33;31.92;;;20.05;;
66179;SDS011;52986;44.028;20.466;2022-10-31T07:59:59;26.15;;;17.88;;
66179;SDS011;52986;44.028;20.466;2022-10-31T08:02:24;27.73;;;17.88;;
66179;SDS011;52986;44.028;20.466;2022-10-31T08:04:50;26.55;;;17.13;;
66179;SDS011;52986;44.028;20.466;2022-10-31T08:07:16;27.33;;;18.52;;
66179;SDS011;52986;44.028;20.466;2022-10-31T08:09:42;26.02;;;16.90;;
66179;SDS011;52986;44.028;20.466;2022-10-31T08:12:08;25.95;;;16.70;;
66179;SDS011;52986;44.028;20.466;2022-10-31T08:14:33;25.02;;;14.93;;
66179;SDS011;52986;44.028;20.466;2022-10-31T08:16:58;20.85;;;13.43;;
66179;SDS011;52986;44.028;20.466;2022-10-31T08:19:24;21.20;;;13.13;;
66179;SDS011;52986;44.028;20.466;2022-10-31T08:21:52;22.23;;;13.07;;
66179;SDS011;52986;44.028;20.466;2022-10-31T08:24:20;23.48;;;13.73;;
66179;SDS011;52986;44.028;20.466;2022-10-31T08:26:45;21.85;;;13.35;;
66179;SDS011;52986;44.028;20.466;2022-10-31T08:29:11;21.67;;;12.75;;
66179;SDS011;52986;44.028;20.466;2022-10-31T08:31:36;22.42;;;12.73;;
66179;SDS011;52986;44.028;20.466;2022-10-31T08:34:02;22.23;;;12.63;;
66179;SDS011;52986;44.028;20.466;2022-10-31T08:36:27;21.45;;;12.40;;
66179;SDS011;52986;44.028;20.466;2022-10-31T08:38:53;19.10;;;12.05;;
66179;SDS011;52986;44.028;20.466;2022-10-31T08:41:19;20.42;;;12.13;;
66179;SDS011;52986;44.028;20.466;2022-10-31T08:43:44;19.85;;;11.50;;
66179;SDS011;52986;44.028;20.466;2022-10-31T08:46:10;20.42;;;12.65;;
66179;SDS011;52986;44.028;20.466;2022-10-31T08:48:35;21.60;;;11.93;;
66179;SDS011;52986;44.028;20.466;2022-10-31T08:51:00;22.85;;;12.85;;
66179;SDS011;52986;44.028;20.466;2022-10-31T08:53:26;22.58;;;12.43;;
66179;SDS011;52986;44.028;20.466;2022-10-31T08:55:54;20.40;;;12.05;;
66179;SDS011;52986;44.028;20.466;2022-10-31T08:58:20;22.70;;;11.05;;
66179;SDS011;52986;44.028;20.466;2022-10-31T09:00:47;18.85;;;11.43;;
66179;SDS011;52986;44.028;20.466;2022-10-31T09:03:15;19.77;;;11.45;;
66179;SDS011;52986;44.028;20.466;2022-10-31T09:05:43;22.70;;;11.43;;
66179;SDS011;52986;44.028;20.466;2022-10-31T09:08:09;20.02;;;10.80;;
66179;SDS011;52986;44.028;20.466;2022-10-31T09:10:35;17.77;;;10.32;;
66179;SDS011;52986;44.028;20.466;2022-10-31T09:13:04;19.08;;;10.07;;
66179;SDS011;52986;44.028;20.466;2022-10-31T09:15:32;17.33;;;9.95;;
66179;SDS011;52986;44.028;20.466;2022-10-31T09:18:03;22.35;;;9.93;;
66179;SDS011;52986;44.028;20.466;2022-10-31T09:20:29;23.88;;;10.70;;
66179;SDS011;52986;44.028;20.466;2022-10-31T09:22:56;17.85;;;9.43;;
66179;SDS011;52986;44.028;20.466;2022-10-31T09:25:23;19.90;;;9.45;;
66179;SDS011;52986;44.028;20.466;2022-10-31T09:27:48;19.58;;;9.38;;
66179;SDS011;52986;44.028;20.466;2022-10-31T09:30:14;21.87;;;9.73;;
66179;SDS011;52986;44.028;20.466;2022-10-31T09:32:39;19.40;;;9.10;;
66179;SDS011;52986;44.028;20.466;2022-10-31T09:35:05;17.70;;;8.65;;
66179;SDS011;52986;44.028;20.466;2022-10-31T09:37:30;19.70;;;8.98;;
66179;SDS011;52986;44.028;20.466;2022-10-31T09:39:56;15.93;;;8.35;;
66179;SDS011;52986;44.028;20.466;2022-10-31T09:45:31;20.08;;;7.95;;
66179;SDS011;52986;44.028;20.466;2022-10-31T09:50:45;19.33;;;7.88;;
66179;SDS011;52986;44.028;20.466;2022-10-31T09:56:16;16.58;;;7.00;;
66179;SDS011;52986;44.028;20.466;2022-10-31T09:58:46;13.88;;;5.45;;
66179;SDS011;52986;44.028;20.466;2022-10-31T10:06:56;16.48;;;5.60;;
66179;SDS011;52986;44.028;20.466;2022-10-31T10:09:24;14.20;;;5.63;;
66179;SDS011;52986;44.028;20.466;2022-10-31T10:11:58;12.20;;;5.43;;
66179;SDS011;52986;44.028;20.466;2022-10-31T10:15:31;12.80;;;5.80;;
66179;SDS011;52986;44.028;20.466;2022-10-31T10:18:26;17.40;;;6.55;;
66179;SDS011;52986;44.028;20.466;2022-10-31T10:28:38;12.82;;;5.28;;
66179;SDS011;52986;44.028;20.466;2022-10-31T10:33:49;11.75;;;5.10;;
66179;SDS011;52986;44.028;20.466;2022-10-31T10:36:32;13.18;;;4.78;;
66179;SDS011;52986;44.028;20.466;2022-10-31T10:41:31;12.55;;;4.90;;
66179;SDS011;52986;44.028;20.466;2022-10-31T10:43:57;12.70;;;5.68;;
66179;SDS011;52986;44.028;20.466;2022-10-31T10:49:40;14.75;;;5.32;;
66179;SDS011;52986;44.028;20.466;2022-10-31T10:52:18;14.90;;;5.30;;
66179;SDS011;52986;44.028;20.466;2022-10-31T10:58:08;14.63;;;5.53;;
66179;SDS011;52986;44.028;20.466;2022-10-31T11:00:39;12.73;;;5.15;;
66179;SDS011;52986;44.028;20.466;2022-10-31T11:03:07;14.43;;;5.63;;
66179;SDS011;52986;44.028;20.466;2022-10-31T11:05:39;18.13;;;5.70;;
66179;SDS011;52986;44.028;20.466;2022-10-31T11:08:11;18.10;;;5.32;;
66179;SDS011;52986;44.028;20.466;2022-10-31T11:13:26;13.68;;;5.00;;
66179;SDS011;52986;44.028;20.466;2022-10-31T11:18:30;15.30;;;5.10;;
66179;SDS011;52986;44.028;20.466;2022-10-31T11:21:00;14.13;;;5.15;;
66179;SDS011;52986;44.028;20.466;2022-10-31T11:23:27;13.25;;;5.28;;
66179;SDS011;52986;44.028;20.466;2022-10-31T11:25:56;15.95;;;5.00;;
66179;SDS011;52986;44.028;20.466;2022-10-31T11:28:24;12.10;;;4.78;;
66179;SDS011;52986;44.028;20.466;2022-10-31T11:36:24;13.82;;;5.10;;
66179;SDS011;52986;44.028;20.466;2022-10-31T11:38:51;14.23;;;4.93;;
66179;SDS011;52986;44.028;20.466;2022-10-31T11:41:18;12.43;;;5.05;;
66179;SDS011;52986;44.028;20.466;2022-10-31T11:43:52;11.25;;;4.60;;
66179;SDS011;52986;44.028;20.466;2022-10-31T11:46:21;12.98;;;5.10;;
66179;SDS011;52986;44.028;20.466;2022-10-31T11:48:53;10.35;;;3.05;;
66179;SDS011;52986;44.028;20.466;2022-10-31T11:51:20;9.73;;;2.88;;
66179;SDS011;52986;44.028;20.466;2022-10-31T11:53:52;9.90;;;3.00;;
66179;SDS011;52986;44.028;20.466;2022-10-31T11:56:18;10.05;;;2.97;;
66179;SDS011;52986;44.028;20.466;2022-10-31T11:58:54;8.77;;;2.70;;
66179;SDS011;52986;44.028;20.466;2022-10-31T12:01:28;10.75;;;3.13;;
66179;SDS011;52986;44.028;20.466;2022-10-31T12:04:04;9.32;;;3.03;;
66179;SDS011;52986;44.028;20.466;2022-10-31T12:09:02;11.18;;;2.97;;
66179;SDS011;52986;44.028;20.466;2022-10-31T12:17:13;10.82;;;2.90;;
66179;SDS011;52986;44.028;20.466;2022-10-31T12:19:42;11.18;;;2.70;;
66179;SDS011;52986;44.028;20.466;2022-10-31T12:29:57;10.27;;;3.40;;
66179;SDS011;52986;44.028;20.466;2022-10-31T12:59:29;11.82;;;2.80;;
66179;SDS011;52986;44.028;20.466;2022-10-31T13:07:25;9.05;;;2.60;;
66179;SDS011;52986;44.028;20.466;2022-10-31T13:10:15;7.82;;;2.40;;
66179;SDS011;52986;44.028;20.466;2022-10-31T13:12:45;10.15;;;2.70;;
66179;SDS011;52986;44.028;20.466;2022-10-31T13:15:27;7.82;;;2.47;;
66179;SDS011;52986;44.028;20.466;2022-10-31T13:18:01;12.07;;;2.80;;
66179;SDS011;52986;44.028;20.466;2022-10-31T13:20:37;11.50;;;3.72;;
66179;SDS011;52986;44.028;20.466;2022-10-31T13:25:41;13.15;;;2.70;;
66179;SDS011;52986;44.028;20.466;2022-10-31T13:30:55;13.85;;;3.20;;
66179;SDS011;52986;44.028;20.466;2022-10-31T13:33:25;11.55;;;2.72;;
66179;SDS011;52986;44.028;20.466;2022-10-31T13:38:45;9.32;;;2.80;;
66179;SDS011;52986;44.028;20.466;2022-10-31T13:46:43;10.18;;;3.17;;
66179;SDS011;52986;44.028;20.466;2022-10-31T13:52:04;11.07;;;3.00;;
66179;SDS011;52986;44.028;20.466;2022-10-31T13:54:41;10.32;;;2.72;;
66179;SDS011;52986;44.028;20.466;2022-10-31T13:59:49;12.20;;;3.50;;
66179;SDS011;52986;44.028;20.466;2022-10-31T14:02:18;12.80;;;3.10;;
66179;SDS011;52986;44.028;20.466;2022-10-31T14:04:51;12.68;;;3.33;;
66179;SDS011;52986;44.028;20.466;2022-10-31T14:07:21;8.75;;;3.10;;
66179;SDS011;52986;44.028;20.466;2022-10-31T14:09:55;13.88;;;3.35;;
66179;SDS011;52986;44.028;20.466;2022-10-31T14:12:31;11.35;;;3.40;;
66179;SDS011;52986;44.028;20.466;2022-10-31T14:17:45;10.40;;;3.42;;
66179;SDS011;52986;44.028;20.466;2022-10-31T14:22:39;13.85;;;3.50;;
66179;SDS011;52986;44.028;20.466;2022-10-31T14:27:50;13.05;;;3.45;;
66179;SDS011;52986;44.028;20.466;2022-10-31T14:30:18;10.52;;;4.05;;
66179;SDS011;52986;44.028;20.466;2022-10-31T14:32:51;14.50;;;4.03;;
66179;SDS011;52986;44.028;20.466;2022-10-31T14:35:18;11.57;;;3.85;;
66179;SDS011;52986;44.028;20.466;2022-10-31T14:46:15;13.88;;;4.18;;
66179;SDS011;52986;44.028;20.466;2022-10-31T14:51:36;19.25;;;4.82;;
66179;SDS011;52986;44.028;20.466;2022-10-31T14:54:05;21.55;;;5.90;;
66179;SDS011;52986;44.028;20.466;2022-10-31T14:56:33;23.50;;;6.13;;
66179;SDS011;52986;44.028;20.466;2022-10-31T14:59:03;17.08;;;5.22;;
66179;SDS011;52986;44.028;20.466;2022-10-31T15:01:34;20.65;;;5.57;;
66179;SDS011;52986;44.028;20.466;2022-10-31T15:04:13;21.67;;;5.43;;
66179;SDS011;52986;44.028;20.466;2022-10-31T15:06:46;22.52;;;5.45;;
66179;SDS011;52986;44.028;20.466;2022-10-31T15:09:25;32.13;;;11.60;;
66179;SDS011;52986;44.028;20.466;2022-10-31T15:11:53;36.38;;;15.13;;
66179;SDS011;52986;44.028;20.466;2022-10-31T15:14:22;43.75;;;16.85;;
66179;SDS011;52986;44.028;20.466;2022-10-31T15:16:50;39.22;;;12.43;;
66179;SDS011;52986;44.028;20.466;2022-10-31T15:19:20;27.08;;;9.88;;
66179;SDS011;52986;44.028;20.466;2022-10-31T15:21:50;31.55;;;11.52;;
66179;SDS011;52986;44.028;20.466;2022-10-31T15:24:17;40.83;;;14.60;;
66179;SDS011;52986;44.028;20.466;2022-10-31T15:26:49;27.15;;;11.25;;
66179;SDS011;52986;44.028;20.466;2022-10-31T15:29:23;25.67;;;9.65;;
66179;SDS011;52986;44.028;20.466;2022-10-31T15:31:58;26.52;;;10.95;;
66179;SDS011;52986;44.028;20.466;2022-10-31T15:34:41;24.20;;;11.85;;
66179;SDS011;52986;44.028;20.466;2022-10-31T15:37:11;24.95;;;12.70;;
66179;SDS011;52986;44.028;20.466;2022-10-31T15:39:41;26.10;;;13.00;;
66179;SDS011;52986;44.028;20.466;2022-10-31T15:42:21;20.33;;;8.20;;
66179;SDS011;52986;44.028;20.466;2022-10-31T15:47:23;28.73;;;10.60;;
66179;SDS011;52986;44.028;20.466;2022-10-31T15:49:50;38.33;;;12.15;;
66179;SDS011;52986;44.028;20.466;2022-10-31T15:57:34;33.13;;;11.23;;
66179;SDS011;52986;44.028;20.466;2022-10-31T16:02:30;26.75;;;9.57;;
66179;SDS011;52986;44.028;20.466;2022-10-31T16:04:57;29.60;;;11.45;;
66179;SDS011;52986;44.028;20.466;2022-10-31T16:07:25;39.00;;;10.63;;
66179;SDS011;52986;44.028;20.466;2022-10-31T16:12:18;37.90;;;15.55;;
66179;SDS011;52986;44.028;20.466;2022-10-31T16:14:45;38.92;;;15.68;;
66179;SDS011;52986;44.028;20.466;2022-10-31T16:17:11;42.10;;;18.38;;
66179;SDS011;52986;44.028;20.466;2022-10-31T16:19:45;42.88;;;20.65;;
66179;SDS011;52986;44.028;20.466;2022-10-31T16:22:19;49.78;;;23.70;;
66179;SDS011;52986;44.028;20.466;2022-10-31T16:27:31;49.28;;;25.20;;
66179;SDS011;52986;44.028;20.466;2022-10-31T16:29:59;38.72;;;20.55;;
66179;SDS011;52986;44.028;20.466;2022-10-31T16:32:35;41.75;;;19.40;;
66179;SDS011;52986;44.028;20.466;2022-10-31T16:37:37;42.97;;;24.35;;
66179;SDS011;52986;44.028;20.466;2022-10-31T16:40:02;53.20;;;26.73;;
66179;SDS011;52986;44.028;20.466;2022-10-31T16:42:28;49.65;;;26.05;;
66179;SDS011;52986;44.028;20.466;2022-10-31T16:44:53;52.10;;;26.63;;
66179;SDS011;52986;44.028;20.466;2022-10-31T16:47:19;51.17;;;27.05;;
66179;SDS011;52986;44.028;20.466;2022-10-31T16:49:46;56.15;;;29.63;;
66179;SDS011;52986;44.028;20.466;2022-10-31T16:52:14;59.28;;;28.25;;
66179;SDS011;52986;44.028;20.466;2022-10-31T16:54:39;53.78;;;28.15;;
66179;SDS011;52986;44.028;20.466;2022-10-31T16:57:05;66.80;;;31.42;;
66179;SDS011;52986;44.028;20.466;2022-10-31T16:59:31;58.88;;;30.15;;
66179;SDS011;52986;44.028;20.466;2022-10-31T17:01:58;61.95;;;31.02;;
66179;SDS011;52986;44.028;20.466;2022-10-31T17:04:24;60.80;;;29.85;;
66179;SDS011;52986;44.028;20.466;2022-10-31T17:06:50;63.20;;;31.63;;
66179;SDS011;52986;44.028;20.466;2022-10-31T17:09:15;60.57;;;32.07;;
66179;SDS011;52986;44.028;20.466;2022-10-31T17:11:43;67.35;;;34.10;;
66179;SDS011;52986;44.028;20.466;2022-10-31T17:14:11;64.85;;;33.72;;
66179;SDS011;52986;44.028;20.466;2022-10-31T17:16:37;68.93;;;34.30;;
66179;SDS011;52986;44.028;20.466;2022-10-31T17:19:02;53.15;;;27.83;;
66179;SDS011;52986;44.028;20.466;2022-10-31T17:21:28;60.90;;;29.45;;